createdAt,value
2022-12-03T00:00:43.523Z,49.71
2022-12-03T00:03:12.170Z,50.52
2022-12-03T00:05:48.308Z,49.21
2022-12-03T00:08:17.444Z,49.39
2022-12-03T00:10:46.142Z,50.21
2022-12-03T00:13:14.503Z,49.63
2022-12-03T00:15:42.934Z,49.19
2022-12-03T00:18:11.355Z,49.78
2022-12-03T00:20:39.772Z,50.35
2022-12-03T00:23:09.169Z,49.37
2022-12-03T00:25:37.577Z,49.80
2022-12-03T00:28:05.957Z,49.60
2022-12-03T00:30:34.357Z,49.08
2022-12-03T00:33:02.880Z,49.49
2022-12-03T00:35:31.285Z,50.08
2022-12-03T00:37:59.687Z,50.50
2022-12-03T00:40:28.311Z,49.71
2022-12-03T00:42:56.841Z,49.10
2022-12-03T00:45:25.162Z,48.65
2022-12-03T00:47:53.749Z,50.17
2022-12-03T00:50:22.147Z,50.86
2022-12-03T00:52:51.658Z,49.71
2022-12-03T00:55:20.056Z,50.47
2022-12-03T00:57:48.569Z,49.82
2022-12-03T01:00:17.691Z,50.60
2022-12-03T01:02:46.069Z,49.99
2022-12-03T01:05:14.489Z,49.54
2022-12-03T01:07:43.040Z,49.01
2022-12-03T01:10:12.623Z,49.73
2022-12-03T01:12:41.166Z,50.21
2022-12-03T01:15:10.616Z,49.41
2022-12-03T01:17:39.175Z,49.98
2022-12-03T01:20:09.382Z,49.97
2022-12-03T01:22:37.854Z,50.12
2022-12-03T01:25:06.784Z,49.73
2022-12-03T01:27:35.296Z,50.66
2022-12-03T01:30:05.096Z,49.96
2022-12-03T01:32:33.524Z,49.23
2022-12-03T01:35:02.039Z,49.71
2022-12-03T01:37:30.600Z,49.10
2022-12-03T01:39:59.054Z,50.87
2022-12-03T01:42:31.534Z,50.50
2022-12-03T01:45:01.386Z,50.52
2022-12-03T01:47:35.212Z,49.70
2022-12-03T01:50:08.437Z,50.76
2022-12-03T01:52:39.182Z,51.74
2022-12-03T01:55:13.672Z,50.57
2022-12-03T01:57:47.407Z,51.37
2022-12-03T02:00:18.536Z,50.40
2022-12-03T02:02:49.884Z,50.82
2022-12-03T02:05:22.335Z,50.53
2022-12-03T02:07:50.859Z,50.59
2022-12-03T02:10:25.381Z,50.08
2022-12-03T02:13:01.487Z,49.73
2022-12-03T02:15:30.052Z,48.88
2022-12-03T02:17:59.695Z,48.79
2022-12-03T02:20:28.207Z,50.31
2022-12-03T02:23:10.697Z,49.46
2022-12-03T02:25:39.500Z,50.90
2022-12-03T02:28:09.655Z,49.79
2022-12-03T02:30:38.247Z,50.40
2022-12-03T02:33:06.817Z,51.31
2022-12-03T02:35:37.340Z,50.09
2022-12-03T02:38:08.497Z,49.86
2022-12-03T02:40:37.370Z,50.27
2022-12-03T02:43:06.096Z,51.05
2022-12-03T02:45:39.455Z,50.25
2022-12-03T02:48:25.515Z,50.42
2022-12-03T02:50:57.325Z,50.84
2022-12-03T02:53:36.277Z,50.86
2022-12-03T02:56:06.144Z,50.69
2022-12-03T02:58:35.196Z,49.87
2022-12-03T03:01:05.084Z,49.33
2022-12-03T03:03:34.539Z,50.46
2022-12-03T03:06:06.123Z,50.75
2022-12-03T03:08:35.434Z,50.17
2022-12-03T03:11:04.338Z,50.99
2022-12-03T03:13:33.924Z,50.29
2022-12-03T03:16:04.452Z,49.75
2022-12-03T03:18:34.305Z,50.18
2022-12-03T03:21:04.086Z,50.46
2022-12-03T03:23:32.571Z,49.84
2022-12-03T03:26:06.057Z,49.10
2022-12-03T03:28:37.855Z,49.83
2022-12-03T03:31:08.340Z,49.82
2022-12-03T03:33:39.229Z,49.86
2022-12-03T03:36:08.599Z,50.13
2022-12-03T03:38:38.473Z,51.03
2022-12-03T03:41:09.210Z,51.72
2022-12-03T03:43:39.303Z,50.80
2022-12-03T03:46:08.259Z,49.47
2022-12-03T03:48:37.017Z,50.81
2022-12-03T03:51:09.324Z,50.54
2022-12-03T03:53:44.848Z,50.29
2022-12-03T03:56:15.591Z,50.19
2022-12-03T03:58:44.006Z,50.65
2022-12-03T04:01:14.081Z,50.07
2022-12-03T04:03:42.636Z,50.71
2022-12-03T04:06:11.315Z,49.77
2022-12-03T04:08:39.717Z,49.75
2022-12-03T04:11:26.868Z,50.27
2022-12-03T04:13:55.333Z,50.25
2022-12-03T04:16:23.819Z,50.60
2022-12-03T04:18:52.321Z,51.47
2022-12-03T04:21:41.878Z,50.71
2022-12-03T04:24:11.260Z,50.47
2022-12-03T04:26:58.291Z,50.04
2022-12-03T04:29:26.796Z,50.01
2022-12-03T04:32:13.860Z,50.67
2022-12-03T04:35:00.605Z,50.28
2022-12-03T04:37:29.060Z,50.47
2022-12-03T04:39:57.498Z,49.77
2022-12-03T04:42:26.017Z,49.81
2022-12-03T04:44:54.593Z,49.73
2022-12-03T04:47:23.246Z,50.20
2022-12-03T04:49:51.884Z,49.37
2022-12-03T04:52:20.877Z,49.28
2022-12-03T04:54:49.312Z,50.04
2022-12-03T04:57:17.737Z,50.21
2022-12-03T04:59:46.258Z,50.21
2022-12-03T05:02:14.737Z,50.02
2022-12-03T05:04:44.139Z,50.05
2022-12-03T05:07:12.494Z,50.33
2022-12-03T05:09:40.910Z,50.87
2022-12-03T05:12:09.358Z,50.25
2022-12-03T05:14:37.778Z,51.02
2022-12-03T05:17:06.345Z,50.46
2022-12-03T05:19:53.448Z,50.26
2022-12-03T05:22:21.838Z,50.14
2022-12-03T05:24:50.283Z,50.50
2022-12-03T05:27:23.405Z,50.43
2022-12-03T05:29:53.195Z,50.88
2022-12-03T05:32:21.782Z,51.00
2022-12-03T05:34:50.164Z,49.58
2022-12-03T05:37:18.545Z,50.56
2022-12-03T05:39:46.874Z,50.92
2022-12-03T05:42:34.049Z,49.92
2022-12-03T05:45:03.791Z,50.27
2022-12-03T05:47:33.192Z,50.01
2022-12-03T05:50:01.879Z,50.94
2022-12-03T05:52:30.295Z,50.72
2022-12-03T05:54:58.707Z,51.02
2022-12-03T05:57:27.116Z,51.11
2022-12-03T05:59:55.537Z,52.77
2022-12-03T06:02:24.070Z,51.82
2022-12-03T06:04:52.975Z,51.07
2022-12-03T06:07:21.520Z,50.21
2022-12-03T06:09:50.060Z,50.89
2022-12-03T06:12:18.410Z,50.75
2022-12-03T06:14:46.780Z,51.01
2022-12-03T06:17:15.253Z,50.45
2022-12-03T06:19:43.656Z,50.40
2022-12-03T06:22:12.368Z,50.09
2022-12-03T06:24:40.782Z,51.26
2022-12-03T06:27:09.407Z,50.99
2022-12-03T06:29:38.309Z,50.60
2022-12-03T06:32:07.993Z,50.54
2022-12-03T06:34:36.571Z,50.06
2022-12-03T06:37:04.969Z,52.28
2022-12-03T06:39:33.462Z,52.82
2022-12-03T06:42:02.021Z,51.57
2022-12-03T06:44:30.350Z,51.07
2022-12-03T06:46:58.879Z,50.63
2022-12-03T06:49:27.315Z,51.57
2022-12-03T06:51:56.071Z,52.36
2022-12-03T06:54:24.575Z,52.39
2022-12-03T06:56:53.104Z,51.55
2022-12-03T06:59:21.480Z,50.95
2022-12-03T07:01:49.879Z,50.76
2022-12-03T07:04:18.364Z,50.49
2022-12-03T07:06:46.774Z,52.21
2022-12-03T07:09:16.980Z,52.94
2022-12-03T07:11:46.466Z,51.64
2022-12-03T07:14:14.967Z,52.64
2022-12-03T07:16:43.772Z,52.22
2022-12-03T07:19:13.796Z,51.30
2022-12-03T07:21:42.212Z,50.33
2022-12-03T07:24:10.743Z,50.16
2022-12-03T07:26:39.178Z,50.91
2022-12-03T07:29:07.550Z,51.51
2022-12-03T07:31:36.443Z,51.69
2022-12-03T07:34:04.854Z,51.06
2022-12-03T07:36:33.266Z,50.68
2022-12-03T07:39:01.832Z,51.40
2022-12-03T07:41:31.009Z,50.72
2022-12-03T07:43:59.439Z,51.30
2022-12-03T07:46:28.249Z,51.00
2022-12-03T07:48:56.623Z,50.03
2022-12-03T07:51:30.468Z,50.20
2022-12-03T07:54:00.445Z,50.36
2022-12-03T07:56:28.996Z,50.02
2022-12-03T07:58:58.185Z,50.06
2022-12-03T08:01:26.774Z,50.97
2022-12-03T08:03:55.360Z,50.12
2022-12-03T08:06:23.723Z,50.37
2022-12-03T08:08:52.194Z,50.01
2022-12-03T08:11:20.719Z,49.48
2022-12-03T08:13:49.252Z,49.44
2022-12-03T08:16:20.772Z,49.58
2022-12-03T08:18:50.974Z,50.18
2022-12-03T08:21:21.179Z,50.17
2022-12-03T08:23:49.571Z,49.20
2022-12-03T08:26:25.558Z,49.07
2022-12-03T08:28:54.672Z,49.33
2022-12-03T08:31:32.507Z,49.49
2022-12-03T08:34:26.341Z,50.15
2022-12-03T08:37:13.885Z,49.56
2022-12-03T08:39:50.709Z,49.55
2022-12-03T08:42:41.822Z,49.53
2022-12-03T08:45:35.254Z,50.01
2022-12-03T08:48:18.650Z,49.25
2022-12-03T08:50:47.095Z,48.61
2022-12-03T08:53:30.448Z,49.64
2022-12-03T08:56:01.427Z,49.32
2022-12-03T08:58:46.246Z,48.67
2022-12-03T09:01:14.900Z,48.77
2022-12-03T09:03:52.151Z,48.47
2022-12-03T09:06:21.863Z,47.91
2022-12-03T09:08:50.235Z,47.96
2022-12-03T09:11:18.814Z,48.82
2022-12-03T09:13:47.226Z,48.55
2022-12-03T09:16:15.743Z,48.10
2022-12-03T09:18:45.291Z,47.79
2022-12-03T09:21:13.682Z,47.77
2022-12-03T09:23:42.157Z,48.53
2022-12-03T09:26:10.622Z,48.08
2022-12-03T09:28:40.119Z,48.19
2022-12-03T09:31:08.604Z,48.03
2022-12-03T09:33:37.118Z,47.56
2022-12-03T09:36:06.721Z,47.91
2022-12-03T09:38:36.238Z,48.54
2022-12-03T09:41:04.972Z,48.27
2022-12-03T09:44:02.661Z,47.60
2022-12-03T09:46:22.892Z,47.23
2022-12-03T09:48:51.278Z,47.99
2022-12-03T09:51:21.025Z,47.72
2022-12-03T09:53:49.433Z,48.04
2022-12-03T09:56:22.170Z,47.79
2022-12-03T09:58:50.693Z,47.71
2022-12-03T10:01:19.200Z,47.88
2022-12-03T10:03:50.052Z,47.87
2022-12-03T10:06:21.579Z,47.62
2022-12-03T10:08:53.464Z,47.72
2022-12-03T10:11:24.984Z,47.65
2022-12-03T10:13:56.239Z,47.33
2022-12-03T10:16:25.808Z,47.46
2022-12-03T10:18:57.018Z,47.33
2022-12-03T10:21:34.600Z,46.94
2022-12-03T10:24:20.998Z,47.17
2022-12-03T10:26:52.982Z,46.90
2022-12-03T10:29:34.560Z,47.05
2022-12-03T10:32:09.973Z,46.96
2022-12-03T10:34:41.028Z,47.42
2022-12-03T10:37:17.189Z,47.28
2022-12-03T10:40:00.743Z,46.97
2022-12-03T10:42:32.410Z,47.51
2022-12-03T10:45:24.850Z,47.74
2022-12-03T10:48:05.934Z,47.21
2022-12-03T10:50:35.796Z,47.19
2022-12-03T10:53:04.867Z,46.81
2022-12-03T10:55:41.143Z,46.51
2022-12-03T10:58:31.384Z,47.06
2022-12-03T11:01:03.411Z,47.07
2022-12-03T11:03:36.280Z,46.58
2022-12-03T11:06:05.149Z,46.13
2022-12-03T11:08:36.320Z,46.89
2022-12-03T11:11:17.031Z,47.29
2022-12-03T11:13:53.075Z,47.05
2022-12-03T11:16:39.920Z,46.63
2022-12-03T11:19:36.488Z,46.47
2022-12-03T11:22:04.880Z,46.63
2022-12-03T11:24:35.899Z,46.53
2022-12-03T11:27:04.283Z,46.41
2022-12-03T11:29:46.629Z,46.12
2022-12-03T11:32:34.138Z,46.65
2022-12-03T11:35:02.561Z,46.68
2022-12-03T11:37:31.240Z,46.23
2022-12-03T11:40:39.090Z,46.49
2022-12-03T11:43:09.923Z,46.27
2022-12-03T11:45:38.776Z,46.68
2022-12-03T11:48:13.784Z,47.08
2022-12-03T11:50:45.188Z,46.54
2022-12-03T11:53:16.113Z,46.58
2022-12-03T11:55:51.914Z,46.45
2022-12-03T11:58:30.176Z,46.20
2022-12-03T12:01:00.399Z,46.31
2022-12-03T12:03:42.043Z,46.49
2022-12-03T12:06:17.068Z,46.34
2022-12-03T12:08:51.715Z,46.31
2022-12-03T12:11:30.382Z,46.40
2022-12-03T12:13:59.914Z,46.60
2022-12-03T12:16:53.686Z,46.81
2022-12-03T12:19:40.077Z,46.60
2022-12-03T12:22:17.626Z,46.59
2022-12-03T12:24:51.452Z,47.30
2022-12-03T12:27:39.273Z,46.82
2022-12-03T12:30:17.482Z,46.58
2022-12-03T12:33:04.143Z,46.73
2022-12-03T12:35:33.065Z,46.31
2022-12-03T12:38:20.065Z,45.85
2022-12-03T12:40:53.173Z,46.15
2022-12-03T12:43:27.695Z,46.48
2022-12-03T12:46:46.541Z,46.40
2022-12-03T12:49:26.370Z,46.11
2022-12-03T12:51:58.785Z,46.20
2022-12-03T12:54:35.255Z,46.14
2022-12-03T12:57:19.815Z,45.99
2022-12-03T12:59:52.486Z,46.20
2022-12-03T13:03:04.692Z,46.32
2022-12-03T13:05:45.391Z,46.50
2022-12-03T13:08:39.657Z,46.78
2022-12-03T13:11:51.862Z,46.30
2022-12-03T13:14:26.174Z,47.66
2022-12-03T13:17:00.008Z,47.83
2022-12-03T13:19:39.640Z,48.33
2022-12-03T13:22:23.251Z,48.49
2022-12-03T13:24:59.631Z,48.32
2022-12-03T13:27:30.178Z,48.24
2022-12-03T13:30:10.257Z,47.86
2022-12-03T13:32:44.362Z,47.52
2022-12-03T13:35:28.245Z,47.42
2022-12-03T13:37:59.296Z,46.75
2022-12-03T13:40:36.495Z,47.84
2022-12-03T13:43:19.114Z,47.79
2022-12-03T13:45:55.257Z,47.93
2022-12-03T13:48:42.852Z,48.09
2022-12-03T13:51:33.401Z,48.87
2022-12-03T13:54:14.383Z,49.02
2022-12-03T13:56:57.405Z,48.56
2022-12-03T13:59:30.552Z,48.05
2022-12-03T14:02:05.991Z,48.17
2022-12-03T14:04:37.779Z,48.00
2022-12-03T14:07:14.247Z,48.30
2022-12-03T14:09:51.523Z,48.08
2022-12-03T14:12:34.030Z,48.09
2022-12-03T14:15:05.466Z,47.26
2022-12-03T14:17:34.529Z,47.30
2022-12-03T14:20:06.773Z,48.22
2022-12-03T14:22:41.970Z,48.71
2022-12-03T14:25:15.999Z,48.38
2022-12-03T14:28:08.774Z,47.25
2022-12-03T14:30:39.808Z,48.00
2022-12-03T14:33:08.792Z,47.67
2022-12-03T14:35:37.913Z,49.24
2022-12-03T14:38:06.320Z,48.59
2022-12-03T14:40:34.777Z,48.87
2022-12-03T14:43:03.459Z,48.80
2022-12-03T14:45:32.906Z,48.99
2022-12-03T14:48:01.420Z,48.57
2022-12-03T14:50:30.235Z,48.43
2022-12-03T14:52:58.688Z,48.57
2022-12-03T14:55:27.233Z,48.88
2022-12-03T14:57:55.639Z,49.10
2022-12-03T15:00:24.261Z,49.11
2022-12-03T15:02:52.733Z,48.56
2022-12-03T15:05:27.989Z,48.37
2022-12-03T15:07:58.166Z,49.11
2022-12-03T15:10:26.586Z,49.19
2022-12-03T15:12:54.946Z,48.48
2022-12-03T15:15:24.408Z,48.56
2022-12-03T15:17:52.905Z,49.01
2022-12-03T15:20:21.366Z,48.48
2022-12-03T15:22:50.827Z,48.92
2022-12-03T15:25:25.409Z,49.25
2022-12-03T15:27:53.899Z,49.13
2022-12-03T15:30:22.381Z,48.43
2022-12-03T15:32:50.925Z,47.99
2022-12-03T15:35:20.320Z,47.55
2022-12-03T15:37:48.840Z,48.29
2022-12-03T15:40:17.386Z,48.63
2022-12-03T15:42:45.825Z,48.20
2022-12-03T15:45:15.523Z,48.00
2022-12-03T15:47:44.480Z,48.12
2022-12-03T15:50:14.175Z,47.64
2022-12-03T15:52:42.701Z,48.13
2022-12-03T15:55:11.562Z,48.38
2022-12-03T15:57:40.034Z,48.06
2022-12-03T16:00:10.834Z,48.96
2022-12-03T16:02:40.755Z,48.19
2022-12-03T16:05:11.808Z,49.52
2022-12-03T16:07:40.911Z,48.42
2022-12-03T16:10:10.823Z,49.04
2022-12-03T16:12:39.482Z,48.25
2022-12-03T16:15:08.327Z,49.15
2022-12-03T16:17:36.786Z,48.38
2022-12-03T16:20:06.713Z,47.76
2022-12-03T16:22:35.150Z,49.15
2022-12-03T16:25:05.114Z,48.98
2022-12-03T16:27:33.749Z,49.20
2022-12-03T16:30:02.353Z,48.80
2022-12-03T16:32:30.840Z,48.27
2022-12-03T16:34:59.291Z,48.40
2022-12-03T16:37:27.731Z,48.25
2022-12-03T16:39:56.504Z,50.20
2022-12-03T16:42:27.238Z,49.74
2022-12-03T16:45:22.810Z,49.40
2022-12-03T16:47:51.149Z,49.24
2022-12-03T16:50:25.881Z,49.77
2022-12-03T16:52:58.075Z,49.65
2022-12-03T16:55:26.448Z,50.06
2022-12-03T16:57:54.875Z,50.06
2022-12-03T17:00:23.435Z,49.19
2022-12-03T17:02:51.961Z,49.01
2022-12-03T17:05:20.455Z,48.78
2022-12-03T17:07:49.017Z,49.00
2022-12-03T17:10:17.546Z,49.13
2022-12-03T17:13:08.923Z,49.62
2022-12-03T17:15:34.824Z,48.96
2022-12-03T17:18:06.437Z,48.63
2022-12-03T17:20:35.831Z,50.12
2022-12-03T17:23:04.255Z,49.43
2022-12-03T17:25:34.154Z,50.29
2022-12-03T17:28:02.666Z,51.13
2022-12-03T17:30:31.051Z,50.58
2022-12-03T17:32:59.439Z,51.58
2022-12-03T17:35:28.554Z,50.10
2022-12-03T17:37:57.007Z,50.45
2022-12-03T17:40:25.376Z,51.08
2022-12-03T17:42:53.830Z,51.60
2022-12-03T17:45:22.234Z,50.63
2022-12-03T17:47:50.753Z,52.07
2022-12-03T17:50:19.562Z,53.29
2022-12-03T17:52:48.002Z,52.46
2022-12-03T17:55:26.478Z,51.99
2022-12-03T17:58:02.616Z,50.67
2022-12-03T18:00:31.494Z,50.48
2022-12-03T18:02:59.923Z,50.94
2022-12-03T18:05:28.368Z,51.11
2022-12-03T18:07:56.878Z,51.00
2022-12-03T18:10:25.514Z,50.72
2022-12-03T18:12:58.333Z,50.88
2022-12-03T18:15:31.092Z,50.08
2022-12-03T18:17:59.595Z,51.14
2022-12-03T18:20:28.241Z,50.45
2022-12-03T18:22:58.899Z,50.21
2022-12-03T18:25:28.272Z,51.19
2022-12-03T18:27:57.312Z,50.15
2022-12-03T18:30:25.710Z,50.40
2022-12-03T18:32:54.424Z,49.81
2022-12-03T18:35:22.987Z,49.55
2022-12-03T18:37:51.725Z,50.23
2022-12-03T18:40:23.357Z,50.50
2022-12-03T18:42:51.768Z,50.70
2022-12-03T18:45:20.544Z,50.73
2022-12-03T18:47:49.223Z,50.84
2022-12-03T18:50:17.692Z,50.70
2022-12-03T18:52:46.091Z,49.68
2022-12-03T18:55:19.164Z,50.54
2022-12-03T18:57:47.538Z,50.05
2022-12-03T19:00:17.553Z,50.48
2022-12-03T19:03:03.461Z,49.54
2022-12-03T19:05:34.409Z,49.72
2022-12-03T19:08:03.493Z,49.95
2022-12-03T19:10:32.935Z,50.00
2022-12-03T19:13:01.444Z,49.44
2022-12-03T19:15:30.834Z,50.65
2022-12-03T19:17:59.270Z,51.04
2022-12-03T19:20:28.779Z,50.65
2022-12-03T19:22:57.286Z,50.10
2022-12-03T19:25:25.813Z,49.73
2022-12-03T19:27:55.094Z,49.20
2022-12-03T19:30:23.692Z,49.03
2022-12-03T19:32:52.179Z,49.05
2022-12-03T19:35:24.978Z,49.20
2022-12-03T19:37:53.536Z,49.19
2022-12-03T19:40:22.020Z,49.93
2022-12-03T19:42:50.432Z,50.67
2022-12-03T19:45:18.866Z,50.08
2022-12-03T19:47:47.280Z,50.13
2022-12-03T19:50:22.623Z,50.53
2022-12-03T19:52:51.937Z,49.96
2022-12-03T19:55:20.579Z,50.11
2022-12-03T19:57:49.220Z,51.36
2022-12-03T20:00:17.995Z,51.16
2022-12-03T20:02:49.233Z,51.45
2022-12-03T20:05:17.820Z,51.77
2022-12-03T20:07:46.347Z,51.66
2022-12-03T20:10:14.850Z,50.89
2022-12-03T20:12:43.286Z,51.08
2022-12-03T20:15:13.401Z,50.38
2022-12-03T20:17:41.830Z,50.24
2022-12-03T20:20:10.722Z,49.86
2022-12-03T20:22:39.201Z,50.66
2022-12-03T20:25:08.009Z,50.13
2022-12-03T20:27:36.738Z,50.68
2022-12-03T20:30:05.880Z,51.28
2022-12-03T20:32:37.298Z,50.40
2022-12-03T20:35:09.717Z,50.44
2022-12-03T20:37:38.115Z,49.77
2022-12-03T20:40:07.205Z,49.31
2022-12-03T20:42:35.601Z,49.18
2022-12-03T20:45:04.388Z,50.22
2022-12-03T20:47:32.754Z,50.43
2022-12-03T20:50:01.202Z,49.98
2022-12-03T20:52:29.663Z,51.93
2022-12-03T20:54:58.107Z,51.54
2022-12-03T20:57:26.546Z,50.82
2022-12-03T20:59:56.008Z,50.31
2022-12-03T21:02:24.652Z,49.84
2022-12-03T21:04:53.601Z,50.90
2022-12-03T21:07:22.054Z,50.07
2022-12-03T21:09:50.776Z,50.34
2022-12-03T21:12:19.122Z,49.81
2022-12-03T21:14:47.570Z,50.81
2022-12-03T21:17:16.056Z,51.42
2022-12-03T21:19:46.817Z,50.43
2022-12-03T21:22:15.315Z,49.73
2022-12-03T21:24:44.816Z,49.44
2022-12-03T21:27:17.104Z,50.06
2022-12-03T21:29:49.888Z,50.52
2022-12-03T21:32:18.378Z,50.75
2022-12-03T21:34:46.790Z,49.75
2022-12-03T21:37:15.240Z,49.37
2022-12-03T21:39:43.659Z,49.84
2022-12-03T21:42:36.241Z,50.01
2022-12-03T21:45:00.441Z,50.87
2022-12-03T21:47:33.519Z,51.21
2022-12-03T21:50:07.346Z,51.74
2022-12-03T21:52:35.733Z,51.46
2022-12-03T21:55:04.402Z,51.13
2022-12-03T21:57:35.722Z,50.32
2022-12-03T22:00:08.638Z,51.00
2022-12-03T22:02:39.065Z,50.57
2022-12-03T22:05:09.090Z,49.93
2022-12-03T22:07:38.760Z,49.94
2022-12-03T22:10:09.822Z,50.01
2022-12-03T22:12:40.629Z,51.10
2022-12-03T22:15:16.593Z,51.25
2022-12-03T22:17:47.705Z,51.58
2022-12-03T22:20:16.326Z,51.20
2022-12-03T22:22:44.736Z,51.39
2022-12-03T22:25:13.158Z,51.40
2022-12-03T22:27:41.555Z,50.83
2022-12-03T22:30:10.148Z,50.26
2022-12-03T22:32:38.643Z,51.84
2022-12-03T22:35:07.422Z,50.86
2022-12-03T22:37:35.972Z,50.63
2022-12-03T22:40:05.068Z,50.56
2022-12-03T22:42:33.529Z,50.98
2022-12-03T22:45:01.946Z,50.29
2022-12-03T22:47:31.342Z,50.35
2022-12-03T22:49:59.709Z,51.63
2022-12-03T22:52:28.119Z,51.44
2022-12-03T22:54:56.536Z,50.71
2022-12-03T22:57:24.917Z,50.26
2022-12-03T22:59:53.692Z,50.05
2022-12-03T23:02:22.332Z,49.61
2022-12-03T23:04:50.788Z,50.33
2022-12-03T23:07:19.188Z,50.79
2022-12-03T23:09:48.714Z,52.11
2022-12-03T23:12:17.136Z,51.99
2022-12-03T23:14:45.547Z,51.36
2022-12-03T23:17:13.910Z,50.53
2022-12-03T23:19:42.413Z,49.88
2022-12-03T23:22:10.759Z,50.91
2022-12-03T23:24:40.263Z,50.88
2022-12-03T23:27:08.670Z,51.27
2022-12-03T23:29:37.019Z,51.43
2022-12-03T23:32:05.423Z,50.27
2022-12-03T23:34:33.987Z,50.25
2022-12-03T23:37:02.503Z,51.10
2022-12-03T23:39:30.890Z,50.69
2022-12-03T23:41:59.257Z,50.05
2022-12-03T23:44:28.032Z,49.58
2022-12-03T23:46:56.574Z,50.17
2022-12-03T23:49:25.123Z,50.49
2022-12-03T23:51:53.614Z,50.60
2022-12-03T23:54:22.174Z,51.62
2022-12-03T23:56:50.538Z,51.84
2022-12-03T23:59:18.909Z,50.98
